Academy, South Dakota
Current Conditions -  °F | °C
As of 11:55 PM on Wednesday 22 Oct 2014 (Local Time) from K9V9 Reporting Station
Clear Clear  
Wind Chill: 41°   Ceiling: Unl
Heat Index: 44°   Visibility: 10mi
Dew Point: 40°   Wind: 5mph
Humidity: 89%   Direction: 240°WSW
Pressure: 30"   Gusts: NA
Location:  43.4255°N, 98.9806°W
Report Text: K9V9 230455Z AUTO 24004KT 10SM CLR 06/05 A3000 RMK AO2 T00640047
Loading
Personal Weather Stations






























Interactive Weather Map
Tropical Storm Tracking
New forecast layout! Learn more

10-Day Weather Forecast

Advertisements
Track Severe Weather on mobile